首页
METAR-TAF:

METAR-TAF

机场 :

科克赛德, 比利时

纬度: 51-05N, 经度: 002-39E, 海拔: 4米

当前天气观测

该预报发布于35分钟前的04:25 UTC
风速10节,风向西北
温度 7°C
湿度 66%
气压 1016 hPa
能见度10公里或以上

METAR: EBFN 190425Z AUTO 31010KT 9999 SCT058/// 07/01 Q1016 BLU

时间: 06:00 (05:00 UTC)

预报

该预报发布于13小时和19分钟前的15:41 UTC
预报有效从18日的 19点(UTC)到 19日的 07点(UTC)
风速18节,风向北转西北,有时为29节阵风
能见度10公里或以上
散云层高于2800英尺
几率 40% :
短暂存在
从 18日的 19点(UTC)到 19日的 07点(UTC)
能見度: 5000
少量云层高于1200英尺
多云层高于1800英尺
小阵雨, 小雨
成为
从 19日的 00点(UTC)到 19日的 02点(UTC)
风速12节,风向西北

TAF: EBFN 181541Z 1819/1907 34018G29KT 9999 SCT028 PROB40 TEMPO 1819/1907 5000 -SHRA -RA FEW012 BKN018 BECMG 1900/1902 32012KT

超过4000个机场的气象观测和天气预报(METAR&TAF报告)。

可查询的气象台以黄色和红色小点在地图上表示。

将鼠标移到小点上方,可查看气象台名称。

然后点击查看天气观测和预报。

如需切换地图:点击带黑十字的绿色按钮放大地图;点击带横线的绿色按钮缩小地图;或者点击绿色箭头查看邻近地区的地图。


METAR-TAF: